Time;durP1;ratioP1;P1;durP2;ratioP2;P2;SDS_P1;SDS_P2;PMS_P1;PMS_P2;Temp;Humidity;BMP_temperature;BMP_pressure;BME280_temperature;BME280_humidity;BME280_pressure;Samples;Min_cycle;Max_cycle;Signal;HPM_P1;HPM_P2
2024/02/08 00:01:19;;;;;;;0.80;0.80;;;;;;;;;;5036135;28;20495;-60
2024/02/08 00:03:47;;;;;;;1.38;1.00;;;;;;;;;;5037278;28;20049;-62
2024/02/08 00:06:15;;;;;;;1.55;1.10;;;;;;;;;;5028709;28;20054;-60
2024/02/08 00:08:44;;;;;;;0.95;0.90;;;;;;;;;;5030488;28;20487;-60
2024/02/08 00:11:14;;;;;;;0.80;0.70;;;;;;;;;;5030473;28;20711;-59
2024/02/08 00:13:42;;;;;;;0.93;0.80;;;;;;;;;;5030927;28;20071;-63
2024/02/08 00:16:12;;;;;;;1.02;0.85;;;;;;;;;;5017278;28;20041;-61
2024/02/08 00:18:40;;;;;;;1.30;0.80;;;;;;;;;;5025537;28;20708;-62
2024/02/08 00:21:10;;;;;;;0.75;0.73;;;;;;;;;;5027546;28;20152;-59
2024/02/08 00:23:38;;;;;;;4.03;1.40;;;;;;;;;;5030392;28;20045;-61
2024/02/08 00:26:06;;;;;;;1.40;0.82;;;;;;;;;;5030032;28;20107;-60
2024/02/08 00:28:39;;;;;;;1.50;0.77;;;;;;;;;;5028642;28;20513;-60
2024/02/08 00:31:08;;;;;;;0.75;0.70;;;;;;;;;;5030222;28;20132;-61
2024/02/08 00:33:38;;;;;;;1.60;0.80;;;;;;;;;;5034979;28;20054;-61
2024/02/08 00:36:09;;;;;;;0.98;0.73;;;;;;;;;;5026037;28;20065;-60
2024/02/08 00:38:38;;;;;;;0.65;0.65;;;;;;;;;;5030806;28;20486;-60
2024/02/08 00:41:07;;;;;;;0.70;0.70;;;;;;;;;;5021025;28;20056;-62
2024/02/08 00:43:39;;;;;;;0.70;0.70;;;;;;;;;;5028374;28;20042;-62
2024/02/08 00:46:07;;;;;;;0.50;0.50;;;;;;;;;;5025873;28;20045;-60
2024/02/08 00:48:35;;;;;;;0.68;0.68;;;;;;;;;;5028436;28;20041;-59
2024/02/08 00:51:06;;;;;;;1.05;0.73;;;;;;;;;;5029246;28;20041;-62
2024/02/08 00:53:35;;;;;;;0.90;0.85;;;;;;;;;;5027136;28;20045;-61
2024/02/08 00:56:03;;;;;;;0.80;0.80;;;;;;;;;;5025239;28;20077;-60
2024/02/08 00:58:32;;;;;;;0.70;0.60;;;;;;;;;;5028504;28;20053;-61
2024/02/08 01:01:02;;;;;;;0.80;0.80;;;;;;;;;;5028257;28;20050;-59
2024/02/08 01:03:31;;;;;;;1.50;0.60;;;;;;;;;;5028659;28;20601;-60
2024/02/08 01:06:02;;;;;;;1.25;0.70;;;;;;;;;;5028310;28;20473;-59
2024/02/08 01:08:33;;;;;;;0.77;0.57;;;;;;;;;;5026557;28;20053;-61
2024/02/08 01:11:01;;;;;;;1.38;0.70;;;;;;;;;;5027448;28;20446;-61
2024/02/08 01:13:31;;;;;;;0.65;0.65;;;;;;;;;;5027226;28;20560;-60
2024/02/08 01:16:01;;;;;;;0.50;0.50;;;;;;;;;;5028070;28;20046;-60
2024/02/08 01:18:30;;;;;;;0.60;0.55;;;;;;;;;;5022928;28;20520;-62
2024/02/08 01:20:59;;;;;;;0.82;0.65;;;;;;;;;;5029144;28;20112;-63
2024/02/08 01:23:28;;;;;;;1.55;0.63;;;;;;;;;;5028421;28;20068;-61
2024/02/08 01:25:57;;;;;;;3.15;0.77;;;;;;;;;;5026691;28;20053;-60
2024/02/08 01:28:26;;;;;;;1.20;0.70;;;;;;;;;;5023384;28;20103;-60
2024/02/08 01:30:55;;;;;;;1.27;0.70;;;;;;;;;;5027258;28;20060;-61
2024/02/08 01:33:24;;;;;;;0.65;0.50;;;;;;;;;;5027210;28;20104;-61
2024/02/08 01:35:53;;;;;;;2.17;0.60;;;;;;;;;;5028847;28;20062;-60
2024/02/08 01:38:21;;;;;;;0.77;0.60;;;;;;;;;;5027392;28;20280;-59
2024/02/08 01:40:50;;;;;;;0.50;0.50;;;;;;;;;;5028179;28;20095;-61
2024/02/08 01:43:18;;;;;;;0.63;0.60;;;;;;;;;;5029218;28;20099;-60
2024/02/08 01:45:49;;;;;;;1.65;0.50;;;;;;;;;;5020664;28;20091;-60
2024/02/08 01:48:18;;;;;;;0.85;0.50;;;;;;;;;;5028414;28;20057;-61
2024/02/08 01:50:50;;;;;;;0.60;0.50;;;;;;;;;;5031403;28;20045;-61
2024/02/08 01:53:23;;;;;;;0.50;0.50;;;;;;;;;;5024441;28;20058;-64
2024/02/08 01:55:52;;;;;;;0.77;0.55;;;;;;;;;;5021347;28;20430;-64
2024/02/08 01:58:21;;;;;;;0.50;0.50;;;;;;;;;;5029601;28;20120;-63
2024/02/08 02:00:52;;;;;;;0.40;0.40;;;;;;;;;;5025735;28;20072;-61
2024/02/08 02:03:23;;;;;;;0.60;0.60;;;;;;;;;;4997823;28;20465;-65
2024/02/08 02:05:53;;;;;;;0.60;0.50;;;;;;;;;;4995845;28;20148;-65
2024/02/08 02:08:22;;;;;;;1.30;0.60;;;;;;;;;;5002114;28;20195;-60
2024/02/08 02:10:55;;;;;;;0.40;0.40;;;;;;;;;;5026247;28;20081;-61
2024/02/08 02:13:24;;;;;;;2.85;0.55;;;;;;;;;;5029501;28;20415;-60
2024/02/08 02:15:52;;;;;;;0.50;0.50;;;;;;;;;;5026494;28;20057;-59
2024/02/08 02:18:21;;;;;;;0.50;0.50;;;;;;;;;;5027070;28;20068;-62
2024/02/08 02:20:50;;;;;;;0.40;0.40;;;;;;;;;;5018971;28;20053;-60
2024/02/08 02:23:19;;;;;;;0.43;0.43;;;;;;;;;;5027533;28;20119;-62
2024/02/08 02:25:51;;;;;;;0.40;0.40;;;;;;;;;;5028239;28;20142;-61
2024/02/08 02:28:20;;;;;;;0.40;0.40;;;;;;;;;;5027092;28;20045;-59
2024/02/08 02:30:50;;;;;;;0.50;0.50;;;;;;;;;;5027130;28;20493;-61
2024/02/08 02:33:19;;;;;;;0.75;0.60;;;;;;;;;;5026753;28;20085;-64
2024/02/08 02:35:49;;;;;;;0.50;0.50;;;;;;;;;;5022767;28;20189;-62
2024/02/08 02:38:17;;;;;;;0.52;0.52;;;;;;;;;;5018220;28;20118;-59
2024/02/08 02:40:48;;;;;;;0.50;0.50;;;;;;;;;;5027046;28;20061;-59
2024/02/08 02:43:16;;;;;;;0.40;0.40;;;;;;;;;;5028677;28;20115;-62
2024/02/08 02:45:45;;;;;;;0.40;0.40;;;;;;;;;;5024211;28;20045;-62
2024/02/08 02:48:14;;;;;;;0.50;0.50;;;;;;;;;;5027350;28;20620;-60
2024/02/08 02:50:43;;;;;;;0.65;0.50;;;;;;;;;;5027476;28;20448;-63
2024/02/08 02:53:12;;;;;;;0.40;0.40;;;;;;;;;;5027708;28;20062;-59
2024/02/08 02:55:41;;;;;;;0.32;0.32;;;;;;;;;;5020889;28;20041;-66
2024/02/08 02:58:12;;;;;;;2.05;0.50;;;;;;;;;;5026512;28;20142;-61
2024/02/08 03:00:40;;;;;;;0.40;0.40;;;;;;;;;;5026453;28;20043;-62
2024/02/08 03:03:12;;;;;;;0.40;0.40;;;;;;;;;;5026011;28;20054;-59
2024/02/08 03:05:42;;;;;;;0.55;0.47;;;;;;;;;;5029595;28;20089;-59
2024/02/08 03:08:11;;;;;;;0.38;0.38;;;;;;;;;;5026756;28;20052;-61
2024/02/08 03:10:42;;;;;;;0.40;0.40;;;;;;;;;;5032034;28;20073;-60
2024/02/08 03:13:12;;;;;;;0.30;0.30;;;;;;;;;;5029907;28;20120;-61
2024/02/08 03:15:40;;;;;;;0.43;0.43;;;;;;;;;;5024370;28;20475;-59
2024/02/08 03:18:09;;;;;;;0.40;0.40;;;;;;;;;;5027239;28;20077;-60
2024/02/08 03:20:38;;;;;;;0.50;0.40;;;;;;;;;;5029600;28;20130;-62
2024/02/08 03:23:06;;;;;;;0.50;0.50;;;;;;;;;;5031745;28;20049;-61
2024/02/08 03:25:40;;;;;;;0.40;0.40;;;;;;;;;;5029050;28;20049;-60
2024/02/08 03:28:10;;;;;;;0.40;0.40;;;;;;;;;;5028088;28;20042;-60
2024/02/08 03:30:40;;;;;;;1.55;0.40;;;;;;;;;;5027940;28;20090;-61
2024/02/08 03:33:15;;;;;;;0.40;0.40;;;;;;;;;;5030510;28;20056;-62
2024/02/08 03:35:53;;;;;;;0.40;0.40;;;;;;;;;;5029781;28;20084;-60
2024/02/08 03:38:24;;;;;;;0.35;0.35;;;;;;;;;;5032214;28;20077;-59
2024/02/08 03:40:52;;;;;;;0.40;0.40;;;;;;;;;;5021673;28;20073;-59
2024/02/08 03:43:23;;;;;;;0.40;0.40;;;;;;;;;;5030270;28;20042;-60
2024/02/08 03:45:55;;;;;;;0.70;0.50;;;;;;;;;;5030300;28;20111;-61
2024/02/08 03:48:24;;;;;;;0.57;0.50;;;;;;;;;;5029162;28;20276;-63
2024/02/08 03:50:52;;;;;;;0.90;0.40;;;;;;;;;;5032110;28;20061;-59
2024/02/08 03:53:20;;;;;;;0.40;0.40;;;;;;;;;;5029322;28;20052;-59
2024/02/08 03:55:51;;;;;;;0.40;0.40;;;;;;;;;;5031307;28;20045;-60
2024/02/08 03:58:23;;;;;;;0.50;0.50;;;;;;;;;;5029316;28;20052;-63
2024/02/08 04:00:55;;;;;;;0.40;0.40;;;;;;;;;;5028205;28;20046;-61
2024/02/08 04:03:43;;;;;;;0.70;0.40;;;;;;;;;;5028350;28;20191;-59
2024/02/08 04:06:37;;;;;;;0.40;0.40;;;;;;;;;;5030990;28;20525;-60
2024/02/08 04:09:08;;;;;;;0.45;0.45;;;;;;;;;;5029202;28;20538;-59
2024/02/08 04:55:58;;;;;;;0.30;0.30;;;;;;;;;;5026158;28;20095;-60
2024/02/08 04:58:27;;;;;;;0.40;0.40;;;;;;;;;;5027830;28;20053;-61
2024/02/08 05:01:17;;;;;;;0.40;0.40;;;;;;;;;;5036296;28;20392;-60
2024/02/08 05:03:45;;;;;;;0.38;0.38;;;;;;;;;;5022923;28;20411;-60
2024/02/08 05:06:18;;;;;;;0.30;0.30;;;;;;;;;;5026385;28;20099;-61
2024/02/08 05:08:48;;;;;;;0.40;0.40;;;;;;;;;;5028769;28;20041;-63
2024/02/08 05:11:17;;;;;;;0.30;0.30;;;;;;;;;;5028406;28;20069;-65
2024/02/08 05:13:49;;;;;;;0.40;0.40;;;;;;;;;;5029323;28;20236;-59
2024/02/08 05:16:19;;;;;;;0.43;0.43;;;;;;;;;;5027433;28;20418;-64
2024/02/08 05:18:49;;;;;;;0.45;0.45;;;;;;;;;;5026352;28;20140;-62
2024/02/08 05:21:19;;;;;;;0.30;0.30;;;;;;;;;;5027937;28;20069;-61
2024/02/08 05:23:51;;;;;;;0.35;0.35;;;;;;;;;;5028254;28;20061;-59
2024/02/08 05:26:25;;;;;;;0.45;0.45;;;;;;;;;;5025798;28;20048;-64
2024/02/08 05:28:54;;;;;;;0.60;0.40;;;;;;;;;;5022978;28;20417;-60
2024/02/08 05:31:22;;;;;;;0.40;0.40;;;;;;;;;;5026670;28;20103;-61
2024/02/08 05:33:52;;;;;;;0.43;0.43;;;;;;;;;;5030889;28;20088;-62
2024/02/08 05:36:22;;;;;;;0.35;0.35;;;;;;;;;;5027211;28;20047;-59
2024/02/08 05:38:52;;;;;;;0.30;0.30;;;;;;;;;;5024701;28;20073;-59
2024/02/08 05:41:22;;;;;;;2.53;0.70;;;;;;;;;;5025599;28;20124;-60
2024/02/08 05:43:51;;;;;;;0.40;0.40;;;;;;;;;;5029137;28;20471;-62
2024/02/08 05:46:24;;;;;;;0.32;0.32;;;;;;;;;;5027847;28;20462;-62
2024/02/08 05:48:54;;;;;;;0.75;0.40;;;;;;;;;;5028394;28;20103;-60
2024/02/08 05:51:26;;;;;;;0.73;0.40;;;;;;;;;;5027203;28;20453;-58
2024/02/08 05:53:54;;;;;;;0.40;0.40;;;;;;;;;;5028984;28;20053;-60
2024/02/08 05:56:24;;;;;;;0.57;0.40;;;;;;;;;;5023758;28;20099;-59
2024/02/08 05:58:53;;;;;;;0.35;0.35;;;;;;;;;;5028079;28;20042;-60
2024/02/08 06:01:23;;;;;;;0.32;0.32;;;;;;;;;;5022784;28;20474;-60
2024/02/08 06:04:00;;;;;;;0.30;0.30;;;;;;;;;;5032181;28;20140;-60
2024/02/08 06:06:34;;;;;;;0.45;0.45;;;;;;;;;;5024850;28;20085;-61
2024/02/08 06:09:08;;;;;;;2.15;0.50;;;;;;;;;;5022355;28;20056;-59
2024/02/08 06:11:38;;;;;;;0.40;0.40;;;;;;;;;;5024853;28;20056;-59
2024/02/08 06:14:12;;;;;;;0.40;0.40;;;;;;;;;;5026769;28;20049;-58
2024/02/08 06:16:46;;;;;;;;;;;;;;;;;;5029296;28;20132;-64
2024/02/08 06:19:17;;;;;;;0.40;0.40;;;;;;;;;;5026262;28;20636;-59
2024/02/08 06:21:48;;;;;;;0.55;0.50;;;;;;;;;;5025840;28;20164;-59
2024/02/08 06:24:32;;;;;;;0.55;0.55;;;;;;;;;;5028930;28;20056;-59
2024/02/08 06:27:01;;;;;;;0.40;0.40;;;;;;;;;;5029890;28;20045;-60
2024/02/08 06:29:42;;;;;;;0.40;0.40;;;;;;;;;;5025205;28;20953;-60
2024/02/08 06:32:23;;;;;;;0.40;0.40;;;;;;;;;;5028263;28;20557;-59
2024/02/08 06:35:05;;;;;;;2.78;0.50;;;;;;;;;;5019418;28;20195;-59
2024/02/08 06:37:42;;;;;;;0.52;0.40;;;;;;;;;;5023470;28;20045;-62
2024/02/08 06:40:17;;;;;;;0.40;0.40;;;;;;;;;;5027517;28;20077;-64
2024/02/08 06:43:15;;;;;;;0.57;0.50;;;;;;;;;;5027655;28;20080;-59
2024/02/08 07:38:53;;;;;;;1.20;0.55;;;;;;;;;;5031781;28;20057;-59
2024/02/08 07:41:23;;;;;;;0.60;0.50;;;;;;;;;;5047809;28;20077;-59
2024/02/08 07:43:55;;;;;;;0.40;0.40;;;;;;;;;;5028549;28;20116;-60
2024/02/08 07:46:29;;;;;;;0.40;0.40;;;;;;;;;;5024198;28;20053;-59
2024/02/08 07:49:04;;;;;;;0.30;0.30;;;;;;;;;;5027359;28;20479;-62
2024/02/08 07:51:34;;;;;;;0.40;0.40;;;;;;;;;;5030782;28;20052;-60
2024/02/08 07:54:10;;;;;;;0.40;0.40;;;;;;;;;;5030597;28;20601;-61
2024/02/08 07:56:46;;;;;;;0.40;0.40;;;;;;;;;;5026497;28;20141;-61
2024/02/08 07:59:26;;;;;;;0.40;0.40;;;;;;;;;;5030945;28;20052;-60
2024/02/08 08:01:57;;;;;;;0.40;0.40;;;;;;;;;;5031876;28;20046;-61
2024/02/08 08:07:22;;;;;;;0.43;0.40;;;;;;;;;;5036908;28;20494;-60
2024/02/08 08:10:07;;;;;;;0.45;0.45;;;;;;;;;;5031966;28;20054;-60
2024/02/08 08:12:36;;;;;;;0.75;0.50;;;;;;;;;;5035163;28;20080;-61
2024/02/08 08:15:13;;;;;;;0.47;0.47;;;;;;;;;;5029828;28;20413;-60
2024/02/08 08:17:43;;;;;;;0.38;0.35;;;;;;;;;;5027225;28;20049;-60
2024/02/08 08:23:07;;;;;;;0.55;0.50;;;;;;;;;;5031197;28;20041;-62
2024/02/08 08:25:59;;;;;;;;;;;;;;;;;;5030519;28;20076;-61
2024/02/08 08:28:39;;;;;;;0.35;0.35;;;;;;;;;;5029827;28;19979;-61
2024/02/08 08:33:59;;;;;;;0.40;0.40;;;;;;;;;;5030392;28;20050;-62
2024/02/08 08:36:28;;;;;;;0.40;0.40;;;;;;;;;;5031389;28;20510;-60
2024/02/08 08:39:46;;;;;;;0.47;0.47;;;;;;;;;;5029978;28;20037;-60
2024/02/08 08:41:48;;;;;;;0.45;0.45;;;;;;;;;;5020431;28;20581;-62
2024/02/08 08:44:18;;;;;;;0.50;0.50;;;;;;;;;;5029168;28;20127;-62
2024/02/08 08:46:52;;;;;;;0.40;0.40;;;;;;;;;;5030262;28;20077;-61
2024/02/08 08:49:22;;;;;;;0.57;0.40;;;;;;;;;;5030037;28;20547;-60
2024/02/08 08:51:58;;;;;;;0.40;0.40;;;;;;;;;;5030806;28;20084;-61
2024/02/08 08:54:29;;;;;;;1.85;0.43;;;;;;;;;;5020866;28;20506;-62
2024/02/08 08:56:58;;;;;;;0.60;0.40;;;;;;;;;;5029289;28;20370;-60
2024/02/08 08:59:29;;;;;;;0.35;0.35;;;;;;;;;;5029532;28;20560;-59
2024/02/08 09:02:00;;;;;;;0.30;0.30;;;;;;;;;;5029160;28;20545;-59
2024/02/08 09:04:35;;;;;;;1.77;0.40;;;;;;;;;;5030143;28;20168;-63
2024/02/08 09:07:10;;;;;;;0.32;0.32;;;;;;;;;;5030571;28;20053;-60
2024/02/08 09:10:00;;;;;;;0.30;0.30;;;;;;;;;;5028379;28;20045;-59
2024/02/08 09:12:30;;;;;;;0.98;0.40;;;;;;;;;;5021937;28;20579;-60
2024/02/08 09:15:19;;;;;;;0.30;0.30;;;;;;;;;;5034019;28;20055;-61
2024/02/08 09:17:52;;;;;;;0.35;0.35;;;;;;;;;;5024436;28;20045;-63
2024/02/08 09:20:23;;;;;;;1.23;0.40;;;;;;;;;;5021502;28;20497;-59
2024/02/08 09:22:52;;;;;;;0.50;0.50;;;;;;;;;;5030513;28;20061;-62
2024/02/08 09:25:21;;;;;;;0.70;0.70;;;;;;;;;;5029093;28;20080;-64
2024/02/08 09:28:23;;;;;;;0.40;0.40;;;;;;;;;;5028903;28;20046;-59
2024/02/08 09:30:57;;;;;;;0.40;0.40;;;;;;;;;;5030032;28;20089;-59
2024/02/08 09:33:31;;;;;;;0.30;0.30;;;;;;;;;;5029569;28;20136;-63
2024/02/08 09:36:00;;;;;;;0.40;0.40;;;;;;;;;;5029229;28;20049;-62
2024/02/08 09:38:29;;;;;;;1.27;0.50;;;;;;;;;;5028002;28;20470;-60
2024/02/08 09:40:59;;;;;;;0.40;0.40;;;;;;;;;;5032502;28;20465;-61
2024/02/08 09:43:29;;;;;;;0.40;0.40;;;;;;;;;;5029678;28;20589;-61
2024/02/08 09:46:10;;;;;;;0.40;0.40;;;;;;;;;;5030795;28;20759;-62
2024/02/08 09:48:46;;;;;;;0.35;0.35;;;;;;;;;;5026008;28;20087;-64
2024/02/08 09:51:23;;;;;;;0.40;0.40;;;;;;;;;;5037961;28;20061;-61
2024/02/08 09:54:14;;;;;;;0.50;0.50;;;;;;;;;;5024749;28;20502;-60
2024/02/08 09:56:50;;;;;;;0.40;0.40;;;;;;;;;;5028729;28;20046;-62
2024/02/08 09:59:58;;;;;;;0.30;0.30;;;;;;;;;;5028060;28;20045;-61
2024/02/08 10:02:20;;;;;;;0.40;0.40;;;;;;;;;;5028405;28;20092;-63
2024/02/08 10:04:56;;;;;;;0.40;0.30;;;;;;;;;;5020655;28;20380;-60
2024/02/08 10:07:34;;;;;;;0.50;0.40;;;;;;;;;;5023248;28;20048;-60
2024/02/08 10:10:15;;;;;;;0.30;0.30;;;;;;;;;;5027121;28;20072;-60
2024/02/08 10:12:53;;;;;;;0.40;0.40;;;;;;;;;;5024106;28;20421;-62
2024/02/08 10:15:28;;;;;;;0.40;0.40;;;;;;;;;;5028457;28;20533;-63
2024/02/08 10:18:10;;;;;;;0.30;0.30;;;;;;;;;;5027700;28;20052;-60
2024/02/08 10:20:46;;;;;;;0.40;0.40;;;;;;;;;;5028020;28;20501;-62
2024/02/08 10:28:46;;;;;;;0.30;0.30;;;;;;;;;;5025767;28;20049;-60
2024/02/08 10:31:22;;;;;;;0.30;0.30;;;;;;;;;;5056962;28;20059;-61
2024/02/08 10:33:57;;;;;;;0.30;0.30;;;;;;;;;;5064193;28;20048;-60
2024/02/08 10:36:35;;;;;;;;;;;;;;;;;;5066004;28;20141;-63
2024/02/08 10:39:07;;;;;;;0.40;0.40;;;;;;;;;;5068031;28;19920;-60
2024/02/08 10:41:38;;;;;;;0.30;0.30;;;;;;;;;;5064326;28;20568;-63
2024/02/08 10:44:17;;;;;;;0.40;0.40;;;;;;;;;;5065726;28;20083;-61
2024/02/08 10:46:47;;;;;;;1.50;0.30;;;;;;;;;;5065171;28;20343;-62
2024/02/08 10:49:15;;;;;;;0.30;0.30;;;;;;;;;;5065348;28;20079;-60
2024/02/08 10:51:44;;;;;;;0.30;0.30;;;;;;;;;;5066482;28;20053;-60
2024/02/08 10:54:23;;;;;;;0.30;0.30;;;;;;;;;;5065685;28;20056;-61
2024/02/08 10:57:06;;;;;;;1.17;0.50;;;;;;;;;;5065546;28;20052;-61
2024/02/08 10:59:47;;;;;;;1.23;0.40;;;;;;;;;;5064863;28;20051;-61
2024/02/08 11:02:31;;;;;;;0.30;0.30;;;;;;;;;;5048506;28;20554;-64
2024/02/08 11:05:20;;;;;;;1.17;0.35;;;;;;;;;;5028370;28;20514;-60
2024/02/08 11:07:53;;;;;;;0.40;0.40;;;;;;;;;;5028991;28;20400;-60
2024/02/08 11:10:31;;;;;;;0.52;0.40;;;;;;;;;;5026661;28;20168;-60
2024/02/08 11:13:10;;;;;;;0.30;0.30;;;;;;;;;;5024659;28;20037;-63
2024/02/08 11:15:41;;;;;;;0.30;0.30;;;;;;;;;;5023893;28;20072;-61
2024/02/08 11:18:33;;;;;;;0.40;0.30;;;;;;;;;;5028582;28;20060;-61
2024/02/08 11:21:03;;;;;;;1.25;0.43;;;;;;;;;;5023976;28;20115;-62
2024/02/08 11:23:38;;;;;;;0.20;0.20;;;;;;;;;;5027050;28;20389;-61
2024/02/08 11:26:11;;;;;;;0.22;0.22;;;;;;;;;;5027375;28;20083;-62
2024/02/08 11:28:47;;;;;;;0.50;0.22;;;;;;;;;;5031482;28;20064;-62
2024/02/08 11:31:17;;;;;;;0.30;0.30;;;;;;;;;;5039862;28;20479;-60
2024/02/08 11:33:46;;;;;;;0.30;0.30;;;;;;;;;;5036767;28;20054;-60
2024/02/08 11:36:16;;;;;;;0.30;0.30;;;;;;;;;;5029684;28;20088;-61
2024/02/08 11:38:46;;;;;;;0.30;0.30;;;;;;;;;;5030561;28;20073;-59
2024/02/08 11:41:20;;;;;;;0.30;0.30;;;;;;;;;;5039083;28;20064;-61
2024/02/08 11:44:02;;;;;;;0.40;0.40;;;;;;;;;;5030601;28;20140;-61
2024/02/08 11:46:37;;;;;;;0.30;0.30;;;;;;;;;;5028982;28;20061;-63
2024/02/08 11:49:14;;;;;;;;;;;;;;;;;;5031099;28;20049;-61
2024/02/08 11:51:45;;;;;;;0.30;0.30;;;;;;;;;;5026590;28;19925;-59
2024/02/08 11:54:27;;;;;;;0.30;0.30;;;;;;;;;;5031137;28;20053;-63
2024/02/08 11:57:00;;;;;;;0.30;0.30;;;;;;;;;;5031062;28;20389;-62
2024/02/08 11:59:28;;;;;;;0.40;0.40;;;;;;;;;;5030606;28;20140;-61
2024/02/08 12:01:58;;;;;;;0.52;0.40;;;;;;;;;;5030276;28;20059;-60
2024/02/08 12:04:28;;;;;;;0.30;0.30;;;;;;;;;;5030793;28;20053;-61
2024/02/08 12:07:02;;;;;;;0.30;0.30;;;;;;;;;;5030158;28;20053;-63
2024/02/08 12:09:31;;;;;;;0.30;0.30;;;;;;;;;;5027854;28;20066;-62
2024/02/08 12:12:03;;;;;;;0.30;0.30;;;;;;;;;;5030776;28;20095;-61
2024/02/08 12:14:32;;;;;;;0.40;0.40;;;;;;;;;;5030940;28;20586;-60
2024/02/08 12:17:02;;;;;;;0.50;0.30;;;;;;;;;;5030728;28;20486;-63
2024/02/08 12:19:30;;;;;;;0.30;0.30;;;;;;;;;;5029731;28;20052;-63
2024/02/08 12:22:03;;;;;;;0.30;0.30;;;;;;;;;;5030317;28;20057;-60
2024/02/08 12:24:34;;;;;;;0.35;0.35;;;;;;;;;;5019343;28;20044;-62
2024/02/08 12:27:12;;;;;;;0.30;0.30;;;;;;;;;;5030329;28;20456;-61
2024/02/08 12:29:46;;;;;;;1.30;0.40;;;;;;;;;;5029307;28;20041;-63
2024/02/08 12:32:17;;;;;;;0.35;0.35;;;;;;;;;;5027140;28;20045;-61
2024/02/08 12:34:47;;;;;;;0.60;0.30;;;;;;;;;;5029558;28;20084;-61
2024/02/08 12:37:19;;;;;;;0.43;0.40;;;;;;;;;;5031313;28;20049;-60
2024/02/08 12:39:49;;;;;;;0.30;0.30;;;;;;;;;;5030895;28;20061;-63
2024/02/08 12:42:23;;;;;;;0.88;0.40;;;;;;;;;;5031241;28;20049;-62
2024/02/08 12:44:51;;;;;;;0.70;0.55;;;;;;;;;;5029775;28;20124;-61
2024/02/08 12:47:23;;;;;;;2.45;0.40;;;;;;;;;;5027374;28;20482;-58
2024/02/08 12:49:53;;;;;;;0.32;0.30;;;;;;;;;;5023319;28;20049;-62
2024/02/08 12:52:22;;;;;;;0.30;0.30;;;;;;;;;;5028499;28;20120;-62
2024/02/08 12:54:54;;;;;;;0.28;0.28;;;;;;;;;;5029818;28;20052;-63
2024/02/08 12:57:26;;;;;;;1.38;0.30;;;;;;;;;;5024882;28;20049;-62
2024/02/08 13:00:01;;;;;;;0.30;0.30;;;;;;;;;;5026386;28;20096;-60
2024/02/08 13:02:33;;;;;;;0.35;0.35;;;;;;;;;;5027937;28;20054;-63
2024/02/08 13:05:02;;;;;;;0.30;0.30;;;;;;;;;;5027395;28;20054;-63
2024/02/08 13:07:36;;;;;;;0.40;0.40;;;;;;;;;;5029256;28;20107;-64
2024/02/08 13:10:14;;;;;;;0.40;0.40;;;;;;;;;;5026947;28;20068;-61
2024/02/08 13:12:46;;;;;;;0.35;0.35;;;;;;;;;;5026364;28;20053;-61
2024/02/08 13:15:21;;;;;;;0.40;0.40;;;;;;;;;;5028597;28;20538;-63
2024/02/08 13:17:51;;;;;;;0.40;0.40;;;;;;;;;;5025744;28;20503;-61
2024/02/08 13:20:23;;;;;;;1.17;0.30;;;;;;;;;;5027413;28;20149;-61
2024/02/08 13:22:54;;;;;;;0.30;0.30;;;;;;;;;;5029325;28;20056;-60
2024/02/08 13:25:27;;;;;;;0.40;0.40;;;;;;;;;;5028057;28;20092;-64
2024/02/08 13:27:59;;;;;;;0.20;0.20;;;;;;;;;;5020372;28;20482;-63
2024/02/08 13:30:29;;;;;;;0.30;0.30;;;;;;;;;;5025877;28;20116;-61
2024/02/08 13:32:58;;;;;;;1.50;0.52;;;;;;;;;;5029965;28;20079;-61
2024/02/08 13:35:28;;;;;;;0.30;0.30;;;;;;;;;;5029631;28;20049;-64
2024/02/08 13:38:00;;;;;;;0.40;0.40;;;;;;;;;;5028298;28;20053;-64
2024/02/08 13:40:29;;;;;;;0.38;0.38;;;;;;;;;;5024863;28;20079;-63
2024/02/08 13:42:59;;;;;;;0.32;0.32;;;;;;;;;;5024222;28;20458;-61
2024/02/08 13:45:29;;;;;;;0.30;0.30;;;;;;;;;;5034403;28;20057;-62
2024/02/08 13:48:03;;;;;;;0.30;0.30;;;;;;;;;;5026424;28;20050;-63
2024/02/08 13:50:33;;;;;;;0.55;0.40;;;;;;;;;;5024379;28;20084;-65
2024/02/08 13:53:02;;;;;;;0.30;0.30;;;;;;;;;;5027598;28;20407;-62
2024/02/08 13:55:32;;;;;;;0.30;0.30;;;;;;;;;;5026038;28;20045;-61
2024/02/08 13:58:06;;;;;;;0.30;0.30;;;;;;;;;;5027976;28;20494;-61
2024/02/08 14:00:37;;;;;;;0.77;0.30;;;;;;;;;;5021339;28;20057;-63
2024/02/08 14:03:08;;;;;;;0.32;0.30;;;;;;;;;;5027852;28;20045;-64
2024/02/08 14:05:39;;;;;;;0.63;0.40;;;;;;;;;;5026984;28;20096;-64
2024/02/08 14:08:16;;;;;;;2.63;0.63;;;;;;;;;;5028391;28;20053;-60
2024/02/08 14:10:46;;;;;;;0.35;0.35;;;;;;;;;;5027465;28;20544;-63
2024/02/08 14:13:28;;;;;;;0.30;0.30;;;;;;;;;;5026134;28;20056;-62
2024/02/08 14:16:00;;;;;;;0.40;0.40;;;;;;;;;;5026078;28;20592;-63
2024/02/08 14:18:34;;;;;;;1.30;0.40;;;;;;;;;;5024964;28;20550;-61
2024/02/08 14:21:09;;;;;;;0.43;0.40;;;;;;;;;;5027495;28;20042;-63
2024/02/08 14:23:40;;;;;;;2.05;0.40;;;;;;;;;;5040116;28;20118;-64
2024/02/08 14:28:56;;;;;;;0.43;0.43;;;;;;;;;;5025770;28;20085;-64
2024/02/08 14:31:25;;;;;;;3.40;0.50;;;;;;;;;;5024798;28;20045;-62
2024/02/08 14:33:55;;;;;;;0.55;0.40;;;;;;;;;;5033841;28;20114;-61
2024/02/08 14:36:24;;;;;;;1.15;0.80;;;;;;;;;;5032239;28;20054;-62
2024/02/08 14:38:53;;;;;;;3.22;0.75;;;;;;;;;;5026893;28;20260;-60
2024/02/08 14:41:33;;;;;;;1.08;0.60;;;;;;;;;;5026276;28;20132;-60
2024/02/08 14:44:08;;;;;;;1.33;0.60;;;;;;;;;;5025621;28;20416;-64
2024/02/08 14:46:39;;;;;;;1.95;0.77;;;;;;;;;;5023654;28;20092;-62
2024/02/08 14:49:23;;;;;;;1.90;0.63;;;;;;;;;;5019106;28;20576;-61
2024/02/08 14:52:01;;;;;;;2.10;0.60;;;;;;;;;;5027250;28;20077;-60
2024/02/08 14:54:32;;;;;;;2.17;0.80;;;;;;;;;;5026961;28;20076;-61
2024/02/08 14:57:09;;;;;;;1.33;0.80;;;;;;;;;;5026317;28;20330;-60
2024/02/08 14:59:45;;;;;;;3.42;0.73;;;;;;;;;;5025445;28;20045;-61
2024/02/08 15:02:18;;;;;;;;;;;;;;;;;;5031398;28;20049;-62
2024/02/08 15:04:52;;;;;;;3.20;0.80;;;;;;;;;;5030353;28;19921;-60
2024/02/08 15:10:10;;;;;;;2.05;0.75;;;;;;;;;;5026894;28;20128;-63
2024/02/08 15:12:51;;;;;;;3.35;1.02;;;;;;;;;;5029775;28;20529;-61
2024/02/08 15:15:29;;;;;;;4.57;0.98;;;;;;;;;;5030425;28;20049;-63
2024/02/08 15:18:11;;;;;;;3.80;0.98;;;;;;;;;;5030514;28;20056;-61
2024/02/08 15:20:45;;;;;;;3.63;0.93;;;;;;;;;;5027545;28;20099;-61
2024/02/08 15:25:59;;;;;;;2.28;0.82;;;;;;;;;;5029498;28;20501;-62
2024/02/08 15:28:31;;;;;;;4.40;1.00;;;;;;;;;;5033288;28;20050;-61
2024/02/08 15:31:15;;;;;;;6.40;1.08;;;;;;;;;;5030010;28;20061;-61
2024/02/08 15:34:07;;;;;;;4.97;0.95;;;;;;;;;;5044716;28;20154;-63
2024/02/08 15:36:46;;;;;;;9.75;1.48;;;;;;;;;;5025989;28;20116;-61
2024/02/08 15:39:56;;;;;;;6.82;1.27;;;;;;;;;;5030773;28;20046;-58
2024/02/08 15:42:31;;;;;;;4.07;1.05;;;;;;;;;;5030489;28;20052;-62
2024/02/08 15:45:00;;;;;;;2.80;1.13;;;;;;;;;;5025955;28;20060;-60
2024/02/08 15:47:34;;;;;;;5.22;0.98;;;;;;;;;;5028781;28;20063;-62
2024/02/08 15:50:14;;;;;;;8.23;1.50;;;;;;;;;;5026551;28;20077;-63
2024/02/08 15:52:45;;;;;;;5.60;1.20;;;;;;;;;;5029922;28;20132;-61
2024/02/08 15:55:15;;;;;;;4.70;1.00;;;;;;;;;;5027955;28;20045;-62
2024/02/08 15:57:53;;;;;;;4.50;1.10;;;;;;;;;;5029138;28;20132;-61
2024/02/08 16:01:01;;;;;;;1.92;1.05;;;;;;;;;;5029897;28;20061;-62
2024/02/08 16:03:17;;;;;;;9.80;1.25;;;;;;;;;;5020150;28;20451;-66
2024/02/08 16:05:46;;;;;;;4.65;0.90;;;;;;;;;;5028292;28;20053;-61
2024/02/08 16:08:14;;;;;;;4.78;1.30;;;;;;;;;;5027199;28;20056;-62
2024/02/08 16:10:44;;;;;;;5.22;1.40;;;;;;;;;;5027294;28;20050;-62
2024/02/08 16:13:13;;;;;;;4.53;1.00;;;;;;;;;;5023930;28;20073;-61
2024/02/08 16:15:55;;;;;;;3.85;1.00;;;;;;;;;;5025849;28;20045;-62
2024/02/08 16:18:29;;;;;;;5.20;0.98;;;;;;;;;;5028473;28;20063;-62
2024/02/08 16:20:59;;;;;;;4.53;1.25;;;;;;;;;;5032796;28;20049;-60
2024/02/08 16:23:27;;;;;;;6.82;1.70;;;;;;;;;;5030924;28;20107;-60
2024/02/08 16:26:06;;;;;;;6.35;1.23;;;;;;;;;;5029150;28;20053;-65
2024/02/08 16:28:45;;;;;;;5.43;1.40;;;;;;;;;;5026284;28;20046;-62
2024/02/08 16:31:25;;;;;;;5.45;1.50;;;;;;;;;;5032240;28;20479;-61
2024/02/08 16:34:07;;;;;;;5.72;1.13;;;;;;;;;;5024136;28;20084;-65
2024/02/08 16:36:44;;;;;;;4.60;1.10;;;;;;;;;;5029213;28;20052;-63
2024/02/08 16:39:30;;;;;;;8.88;1.35;;;;;;;;;;5028183;28;20045;-63
2024/02/08 16:42:00;;;;;;;6.63;1.23;;;;;;;;;;5030315;28;20056;-67
2024/02/08 16:44:39;;;;;;;3.65;1.00;;;;;;;;;;5030502;28;20049;-66
2024/02/08 16:47:22;;;;;;;5.90;1.35;;;;;;;;;;5030955;28;20076;-65
2024/02/08 16:49:52;;;;;;;7.80;1.48;;;;;;;;;;5020378;28;20049;-64
2024/02/08 16:52:21;;;;;;;6.45;1.27;;;;;;;;;;5029585;28;20490;-65
2024/02/08 16:54:59;;;;;;;5.07;1.70;;;;;;;;;;5026250;28;20061;-69
2024/02/08 16:57:31;;;;;;;5.90;1.30;;;;;;;;;;5025758;28;20068;-64
2024/02/08 17:00:35;;;;;;;5.18;1.15;;;;;;;;;;5029954;28;20406;-64
2024/02/08 17:03:04;;;;;;;6.70;1.45;;;;;;;;;;5030221;28;20131;-64
2024/02/08 17:05:49;;;;;;;7.07;1.85;;;;;;;;;;5018706;28;20053;-68
2024/02/08 17:08:20;;;;;;;5.18;1.25;;;;;;;;;;5030815;28;20049;-64
2024/02/08 17:10:55;;;;;;;10.15;1.77;;;;;;;;;;5030613;28;20545;-64
2024/02/08 17:13:30;;;;;;;6.35;1.20;;;;;;;;;;5031448;28;20421;-65
2024/02/08 17:16:25;;;;;;;8.43;1.63;;;;;;;;;;5033671;28;20566;-64
2024/02/08 17:19:21;;;;;;;3.80;1.40;;;;;;;;;;5023506;28;20050;-66
2024/02/08 17:22:08;;;;;;;6.15;1.67;;;;;;;;;;5025174;28;20037;-66